createdAt,value
2023-02-27T00:00:53.660Z,0.00
2023-02-27T00:01:53.997Z,0.00
2023-02-27T00:02:54.411Z,0.00
2023-02-27T00:03:54.751Z,0.00
2023-02-27T00:04:55.057Z,0.00
2023-02-27T00:05:55.474Z,0.00
2023-02-27T00:06:55.820Z,0.00
2023-02-27T00:07:56.193Z,0.00
2023-02-27T00:08:56.609Z,0.00
2023-02-27T00:09:56.893Z,0.00
2023-02-27T00:10:57.269Z,0.00
2023-02-27T00:11:57.605Z,0.00
2023-02-27T00:12:57.953Z,0.00
2023-02-27T00:13:58.329Z,0.00
2023-02-27T00:14:58.685Z,0.00
2023-02-27T00:15:59.071Z,0.00
2023-02-27T00:16:59.379Z,0.00
2023-02-27T00:17:59.751Z,0.00
2023-02-27T00:19:00.107Z,0.00
2023-02-27T00:20:00.458Z,0.00
2023-02-27T00:21:00.876Z,0.00
2023-02-27T00:22:01.188Z,0.00
2023-02-27T00:23:01.523Z,0.00
2023-02-27T00:24:01.864Z,0.00
2023-02-27T00:25:02.251Z,0.00
2023-02-27T00:26:02.623Z,0.00
2023-02-27T00:27:02.991Z,0.00
2023-02-27T00:28:03.306Z,0.00
2023-02-27T00:29:03.698Z,0.00
2023-02-27T00:30:04.029Z,0.00
2023-02-27T00:31:04.524Z,0.00
2023-02-27T00:32:04.850Z,0.00
2023-02-27T00:33:05.157Z,0.00
2023-02-27T00:34:05.564Z,0.00
2023-02-27T00:35:05.886Z,0.00
2023-02-27T00:36:06.305Z,0.00
2023-02-27T00:37:06.647Z,0.00
2023-02-27T00:38:07.038Z,0.00
2023-02-27T00:39:07.410Z,0.00
2023-02-27T00:40:07.708Z,0.00
2023-02-27T00:41:08.061Z,0.00
2023-02-27T00:42:08.412Z,0.00
2023-02-27T00:43:08.757Z,0.00
2023-02-27T00:44:09.161Z,0.00
2023-02-27T00:45:09.457Z,0.00
2023-02-27T00:46:09.915Z,0.00
2023-02-27T00:47:10.175Z,0.00
2023-02-27T00:48:10.516Z,0.00
2023-02-27T00:49:10.887Z,0.00
2023-02-27T00:50:11.208Z,0.00
2023-02-27T00:51:11.614Z,0.00
2023-02-27T00:52:11.955Z,0.00
2023-02-27T00:53:12.344Z,0.00
2023-02-27T00:54:12.685Z,0.00
2023-02-27T00:55:13.031Z,0.00
2023-02-27T00:56:13.415Z,0.00
2023-02-27T00:57:13.748Z,0.00
2023-02-27T00:58:14.103Z,0.00
2023-02-27T00:59:14.448Z,0.00
2023-02-27T01:00:14.825Z,0.00
2023-02-27T01:01:15.203Z,0.00
2023-02-27T01:02:15.590Z,0.00
2023-02-27T01:03:15.904Z,0.00
2023-02-27T01:04:16.252Z,0.00
2023-02-27T01:05:16.603Z,0.00
2023-02-27T01:06:16.970Z,0.00
2023-02-27T01:07:17.322Z,0.00
2023-02-27T01:08:17.664Z,0.00
2023-02-27T01:09:18.016Z,0.00
2023-02-27T01:10:18.399Z,0.00
2023-02-27T01:11:18.877Z,0.00
2023-02-27T01:12:19.127Z,0.00
2023-02-27T01:13:19.487Z,0.00
2023-02-27T01:14:19.832Z,0.00
2023-02-27T01:15:20.233Z,0.00
2023-02-27T01:16:20.610Z,0.00
2023-02-27T01:17:20.943Z,0.00
2023-02-27T01:18:21.322Z,0.00
2023-02-27T01:19:21.677Z,0.00
2023-02-27T01:20:22.024Z,0.00
2023-02-27T01:21:22.411Z,0.00
2023-02-27T01:22:22.760Z,0.00
2023-02-27T01:23:23.110Z,0.00
2023-02-27T01:24:23.451Z,0.00
2023-02-27T01:25:23.837Z,0.00
2023-02-27T01:26:24.201Z,0.00
2023-02-27T01:27:24.542Z,0.00
2023-02-27T01:28:24.918Z,0.00
2023-02-27T01:29:25.243Z,0.00
2023-02-27T01:30:25.633Z,0.00
2023-02-27T01:31:26.353Z,0.00
2023-02-27T01:32:26.461Z,0.00
2023-02-27T01:33:26.718Z,0.00
2023-02-27T01:34:27.077Z,0.00
2023-02-27T01:35:27.417Z,0.00
2023-02-27T01:36:27.779Z,0.00
2023-02-27T01:37:28.132Z,0.00
2023-02-27T01:38:28.473Z,0.00
2023-02-27T01:39:28.839Z,0.00
2023-02-27T01:40:29.200Z,0.00
2023-02-27T01:41:29.553Z,0.00
2023-02-27T01:42:29.895Z,0.00
2023-02-27T01:43:30.236Z,0.00
2023-02-27T01:44:30.625Z,0.00
2023-02-27T01:45:31.031Z,0.00
2023-02-27T01:46:31.349Z,0.00
2023-02-27T01:47:31.694Z,0.00
2023-02-27T01:48:32.038Z,0.00
2023-02-27T01:49:32.405Z,0.00
2023-02-27T01:50:32.735Z,0.00
2023-02-27T01:51:33.120Z,0.00
2023-02-27T01:52:33.456Z,0.00
2023-02-27T01:53:33.804Z,0.00
2023-02-27T01:54:34.159Z,0.00
2023-02-27T01:55:34.518Z,0.00
2023-02-27T01:56:34.889Z,0.00
2023-02-27T01:57:35.221Z,0.00
2023-02-27T01:58:35.561Z,0.00
2023-02-27T01:59:35.947Z,0.00
2023-02-27T02:00:36.290Z,0.00
2023-02-27T02:01:36.673Z,0.00
2023-02-27T02:02:37.029Z,0.00
2023-02-27T02:03:37.335Z,0.00
2023-02-27T02:04:37.737Z,0.00
2023-02-27T02:05:38.099Z,0.00
2023-02-27T02:06:38.499Z,0.00
2023-02-27T02:07:38.834Z,0.00
2023-02-27T02:08:39.223Z,0.00
2023-02-27T02:09:39.567Z,0.00
2023-02-27T02:10:39.919Z,0.00
2023-02-27T02:11:40.317Z,0.00
2023-02-27T02:12:40.677Z,0.00
2023-02-27T02:13:41.010Z,0.00
2023-02-27T02:14:41.396Z,0.00
2023-02-27T02:15:41.755Z,0.00
2023-02-27T02:16:42.170Z,0.00
2023-02-27T02:17:42.500Z,0.00
2023-02-27T02:18:42.836Z,0.00
2023-02-27T02:19:43.191Z,0.00
2023-02-27T02:20:43.544Z,0.00
2023-02-27T02:21:43.937Z,0.00
2023-02-27T02:22:44.240Z,0.00
2023-02-27T02:23:44.607Z,0.00
2023-02-27T02:24:44.954Z,0.00
2023-02-27T02:25:45.310Z,0.00
2023-02-27T02:26:45.676Z,0.00
2023-02-27T02:27:46.010Z,0.00
2023-02-27T02:28:46.423Z,0.00
2023-02-27T02:29:46.706Z,0.00
2023-02-27T02:30:47.150Z,0.00
2023-02-27T02:31:47.731Z,0.00
2023-02-27T02:32:47.776Z,0.00
2023-02-27T02:33:48.168Z,0.00
2023-02-27T02:34:48.564Z,0.00
2023-02-27T02:35:48.898Z,0.00
2023-02-27T02:36:49.298Z,0.00
2023-02-27T02:37:49.652Z,0.00
2023-02-27T02:38:49.994Z,0.00
2023-02-27T02:39:50.340Z,0.00
2023-02-27T02:40:50.694Z,0.00
2023-02-27T02:41:51.058Z,0.00
2023-02-27T02:42:53.289Z,0.00
2023-02-27T02:43:51.789Z,0.00
2023-02-27T02:44:52.136Z,0.00
2023-02-27T02:45:52.531Z,0.00
2023-02-27T02:46:52.883Z,0.00
2023-02-27T02:47:53.242Z,0.00
2023-02-27T02:48:53.600Z,0.00
2023-02-27T02:49:53.952Z,0.00
2023-02-27T02:50:54.322Z,0.00
2023-02-27T02:51:54.677Z,0.00
2023-02-27T02:52:55.145Z,0.00
2023-02-27T02:53:55.367Z,0.00
2023-02-27T02:54:55.739Z,0.00
2023-02-27T02:55:56.118Z,0.00
2023-02-27T02:56:56.479Z,0.00
2023-02-27T02:57:56.828Z,0.00
2023-02-27T02:58:57.180Z,0.00
2023-02-27T02:59:57.559Z,0.00
2023-02-27T03:00:57.905Z,0.00
2023-02-27T03:01:58.311Z,0.00
2023-02-27T03:02:58.636Z,0.00
2023-02-27T03:03:59.002Z,0.00
2023-02-27T03:04:59.338Z,0.00
2023-02-27T03:05:59.682Z,0.00
2023-02-27T03:07:00.056Z,0.00
2023-02-27T03:08:00.405Z,0.00
2023-02-27T03:09:00.730Z,0.00
2023-02-27T03:10:01.130Z,0.00
2023-02-27T03:11:01.469Z,0.00
2023-02-27T03:12:01.821Z,0.00
2023-02-27T03:13:02.187Z,0.00
2023-02-27T03:14:02.519Z,0.00
2023-02-27T03:15:02.889Z,0.00
2023-02-27T03:16:03.274Z,0.00
2023-02-27T03:17:03.607Z,0.00
2023-02-27T03:18:03.968Z,0.00
2023-02-27T03:19:04.305Z,0.00
2023-02-27T03:20:04.648Z,0.00
2023-02-27T03:21:05.011Z,0.00
2023-02-27T03:22:05.400Z,0.00
2023-02-27T03:23:05.723Z,0.00
2023-02-27T03:24:06.066Z,0.00
2023-02-27T03:25:06.454Z,0.00
2023-02-27T03:26:06.831Z,0.00
2023-02-27T03:27:07.199Z,0.00
2023-02-27T03:28:07.564Z,0.00
2023-02-27T03:29:07.895Z,0.00
2023-02-27T03:30:08.254Z,0.00
2023-02-27T03:31:10.036Z,0.00
2023-02-27T03:32:09.185Z,0.00
2023-02-27T03:33:09.358Z,0.00
2023-02-27T03:34:09.710Z,0.00
2023-02-27T03:35:10.066Z,0.00
2023-02-27T03:36:10.466Z,0.00
2023-02-27T03:37:10.779Z,0.00
2023-02-27T03:38:11.121Z,0.00
2023-02-27T03:39:11.464Z,0.00
2023-02-27T03:40:11.855Z,0.00
2023-02-27T03:41:12.202Z,0.00
2023-02-27T03:42:12.589Z,0.00
2023-02-27T03:43:12.926Z,0.00
2023-02-27T03:44:13.277Z,0.00
2023-02-27T03:45:13.622Z,0.00
2023-02-27T03:46:14.125Z,0.00
2023-02-27T03:47:14.342Z,0.00
2023-02-27T03:48:14.690Z,0.00
2023-02-27T03:49:15.039Z,0.00
2023-02-27T03:50:15.403Z,0.00
2023-02-27T03:51:15.732Z,0.00
2023-02-27T03:52:16.099Z,0.00
2023-02-27T03:53:16.448Z,0.00
2023-02-27T03:54:16.802Z,0.00
2023-02-27T03:55:17.151Z,0.00
2023-02-27T03:56:17.487Z,0.00
2023-02-27T03:57:17.856Z,0.00
2023-02-27T03:58:18.221Z,0.00
2023-02-27T03:59:18.567Z,0.00
2023-02-27T04:00:18.928Z,0.00
2023-02-27T04:01:19.288Z,0.00
2023-02-27T04:02:19.629Z,0.00
2023-02-27T04:03:19.974Z,0.00
2023-02-27T04:04:20.332Z,0.00
2023-02-27T04:05:20.717Z,0.00
2023-02-27T04:06:21.052Z,0.00
2023-02-27T04:07:21.423Z,0.00
2023-02-27T04:08:21.790Z,0.00
2023-02-27T04:09:22.127Z,0.00
2023-02-27T04:10:22.473Z,0.00
2023-02-27T04:11:22.818Z,0.00
2023-02-27T04:12:23.183Z,0.00
2023-02-27T04:13:23.529Z,0.00
2023-02-27T04:14:23.876Z,0.00
2023-02-27T04:15:24.223Z,0.00
2023-02-27T04:16:24.682Z,0.00
2023-02-27T04:17:24.956Z,0.00
2023-02-27T04:18:25.316Z,0.00
2023-02-27T04:19:25.667Z,0.00
2023-02-27T04:20:26.007Z,0.00
2023-02-27T04:21:26.696Z,0.00
2023-02-27T04:22:26.793Z,0.00
2023-02-27T04:23:27.101Z,0.00
2023-02-27T04:24:27.511Z,0.00
2023-02-27T04:25:27.856Z,0.00
2023-02-27T04:26:28.188Z,0.00
2023-02-27T04:27:28.562Z,0.00
2023-02-27T04:28:28.938Z,0.00
2023-02-27T04:29:29.276Z,0.00
2023-02-27T04:30:29.648Z,0.00
2023-02-27T04:31:30.420Z,0.00
2023-02-27T04:32:30.460Z,0.00
2023-02-27T04:33:30.750Z,0.00
2023-02-27T04:34:31.085Z,0.00
2023-02-27T04:35:31.466Z,0.00
2023-02-27T04:36:31.827Z,0.00
2023-02-27T04:37:32.202Z,0.00
2023-02-27T04:38:32.556Z,0.00
2023-02-27T04:39:32.895Z,0.00
2023-02-27T04:40:33.292Z,0.00
2023-02-27T04:41:33.668Z,0.00
2023-02-27T04:42:34.036Z,0.00
2023-02-27T04:43:34.378Z,0.00
2023-02-27T04:44:34.739Z,0.00
2023-02-27T04:45:35.127Z,0.00
2023-02-27T04:46:35.447Z,0.00
2023-02-27T04:47:35.819Z,0.00
2023-02-27T04:48:36.156Z,0.00
2023-02-27T04:49:36.585Z,0.00
2023-02-27T04:50:36.899Z,0.00
2023-02-27T04:51:37.246Z,0.00
2023-02-27T04:52:37.617Z,0.00
2023-02-27T04:53:37.968Z,0.00
2023-02-27T04:54:38.316Z,0.00
2023-02-27T04:55:38.658Z,0.00
2023-02-27T04:56:39.006Z,0.00
2023-02-27T04:57:39.390Z,0.00
2023-02-27T04:58:39.739Z,0.00
2023-02-27T04:59:40.094Z,0.00
2023-02-27T05:00:40.432Z,0.00
2023-02-27T05:01:40.803Z,0.00
2023-02-27T05:02:41.271Z,0.00
2023-02-27T05:03:41.543Z,0.00
2023-02-27T05:04:41.879Z,0.00
2023-02-27T05:05:42.232Z,0.00
2023-02-27T05:06:42.574Z,0.00
2023-02-27T05:07:42.929Z,0.00
2023-02-27T05:08:43.264Z,0.00
2023-02-27T05:09:43.702Z,0.00
2023-02-27T05:10:44.018Z,0.00
2023-02-27T05:11:44.372Z,0.00
2023-02-27T05:12:44.741Z,0.00
2023-02-27T05:13:45.091Z,0.00
2023-02-27T05:14:45.468Z,0.00
2023-02-27T05:15:45.883Z,0.00
2023-02-27T05:16:46.194Z,0.00
2023-02-27T05:17:46.659Z,0.00
2023-02-27T05:18:46.916Z,0.00
2023-02-27T05:19:47.263Z,0.00
2023-02-27T05:20:47.615Z,0.00
2023-02-27T05:21:47.980Z,0.00
2023-02-27T05:22:48.397Z,0.00
2023-02-27T05:23:48.666Z,0.00
2023-02-27T05:24:49.012Z,0.00
2023-02-27T05:25:49.391Z,0.00
2023-02-27T05:26:49.737Z,0.00
2023-02-27T05:27:50.097Z,0.00
2023-02-27T05:28:50.442Z,0.00
2023-02-27T05:29:50.789Z,0.00
2023-02-27T05:30:51.126Z,0.00
2023-02-27T05:31:51.542Z,0.00
2023-02-27T05:32:51.866Z,0.00
2023-02-27T05:33:52.225Z,0.00
2023-02-27T05:34:52.571Z,0.00
2023-02-27T05:35:53.013Z,0.00
2023-02-27T05:36:53.296Z,0.00
2023-02-27T05:37:53.691Z,0.00
2023-02-27T05:38:54.045Z,0.00
2023-02-27T05:39:54.410Z,0.00
2023-02-27T05:40:54.554Z,0.00
2023-02-27T05:41:54.718Z,0.00
2023-02-27T05:42:55.017Z,0.00
2023-02-27T05:43:55.177Z,0.00
2023-02-27T05:44:55.368Z,0.00
2023-02-27T05:45:55.707Z,0.00
2023-02-27T05:46:55.846Z,0.00
2023-02-27T05:47:56.022Z,0.00
2023-02-27T05:48:56.164Z,0.00
2023-02-27T05:49:56.459Z,0.00
2023-02-27T05:50:56.740Z,0.00
2023-02-27T05:51:57.328Z,0.00
2023-02-27T05:52:57.216Z,0.00
2023-02-27T05:53:57.364Z,0.00
2023-02-27T05:54:57.527Z,0.00
2023-02-27T05:55:57.690Z,0.00
2023-02-27T05:56:57.868Z,0.00
2023-02-27T05:57:58.057Z,0.00
2023-02-27T05:58:58.227Z,0.00
2023-02-27T05:59:58.410Z,0.00
2023-02-27T06:00:58.583Z,0.00
2023-02-27T06:01:58.816Z,0.00
2023-02-27T06:02:59.082Z,0.00
2023-02-27T06:03:59.157Z,0.00
2023-02-27T06:04:59.281Z,0.00
2023-02-27T06:05:59.458Z,0.00
2023-02-27T06:06:59.650Z,0.00
2023-02-27T06:07:59.837Z,0.00
2023-02-27T06:08:59.994Z,5.62
2023-02-27T06:10:00.159Z,5.62
2023-02-27T06:11:00.349Z,5.62
2023-02-27T06:12:00.518Z,5.62
2023-02-27T06:13:00.833Z,5.62
2023-02-27T06:14:01.000Z,5.62
2023-02-27T06:15:01.294Z,5.62
2023-02-27T06:16:01.582Z,5.62
2023-02-27T06:17:01.968Z,11.25
2023-02-27T06:18:02.072Z,11.25
2023-02-27T06:19:04.604Z,11.25
2023-02-27T06:20:02.391Z,11.25
2023-02-27T06:21:02.568Z,11.25
2023-02-27T06:22:02.754Z,11.25
2023-02-27T06:23:02.967Z,16.88
2023-02-27T06:24:03.151Z,16.88
2023-02-27T06:25:03.290Z,16.88
2023-02-27T06:26:03.477Z,16.88
2023-02-27T06:27:03.795Z,22.50
2023-02-27T06:28:04.114Z,22.50
2023-02-27T06:29:04.265Z,22.50
2023-02-27T06:30:04.570Z,22.50
2023-02-27T06:31:04.802Z,22.50
2023-02-27T06:32:04.969Z,28.12
2023-02-27T06:33:05.117Z,28.12
2023-02-27T06:34:05.400Z,28.12
2023-02-27T06:35:05.587Z,28.12
2023-02-27T06:36:05.925Z,33.75
2023-02-27T06:37:06.052Z,33.75
2023-02-27T06:38:06.367Z,33.75
2023-02-27T06:39:06.667Z,33.75
2023-02-27T06:40:06.972Z,33.75
2023-02-27T06:41:07.109Z,39.38
2023-02-27T06:42:07.292Z,39.38
2023-02-27T06:43:07.484Z,39.38
2023-02-27T06:44:07.632Z,39.38
2023-02-27T06:45:07.807Z,45.00
2023-02-27T06:46:08.102Z,45.00
2023-02-27T06:47:08.200Z,45.00
2023-02-27T06:48:08.420Z,45.00
2023-02-27T06:49:08.591Z,45.00
2023-02-27T06:50:08.805Z,50.62
2023-02-27T06:51:08.920Z,50.62
2023-02-27T06:52:09.120Z,50.62
2023-02-27T06:53:09.312Z,50.62
2023-02-27T06:54:09.601Z,56.25
2023-02-27T06:55:09.769Z,56.25
2023-02-27T06:56:10.069Z,56.25
2023-02-27T06:57:10.394Z,56.25
2023-02-27T06:58:10.553Z,56.25
2023-02-27T06:59:11.006Z,61.88
2023-02-27T07:00:10.993Z,61.88
2023-02-27T07:01:11.383Z,61.88
2023-02-27T07:02:11.619Z,61.88
2023-02-27T07:03:11.922Z,61.88
2023-02-27T07:04:12.077Z,67.50
2023-02-27T07:05:12.253Z,67.50
2023-02-27T07:06:12.441Z,67.50
2023-02-27T07:07:34.047Z,67.50
2023-02-27T07:08:12.835Z,67.50
2023-02-27T07:09:12.995Z,73.12
2023-02-27T07:10:13.198Z,73.12
2023-02-27T07:11:13.373Z,73.12
2023-02-27T07:12:13.691Z,73.12
2023-02-27T07:13:16.808Z,73.12
2023-02-27T07:14:14.029Z,78.75
2023-02-27T07:15:14.219Z,78.75
2023-02-27T07:16:14.429Z,78.75
2023-02-27T07:17:14.576Z,78.75
2023-02-27T07:18:14.768Z,78.75
2023-02-27T07:19:14.948Z,78.75
2023-02-27T07:20:15.095Z,84.38
2023-02-27T07:21:15.269Z,84.38
2023-02-27T07:22:15.450Z,84.38
2023-02-27T07:23:15.687Z,84.38
2023-02-27T07:24:15.842Z,84.38
2023-02-27T07:25:16.008Z,84.38
2023-02-27T07:26:16.180Z,90.00
2023-02-27T07:27:16.367Z,90.00
2023-02-27T07:28:16.558Z,90.00
2023-02-27T07:29:16.720Z,90.00
2023-02-27T07:30:16.910Z,90.00
2023-02-27T07:31:17.074Z,90.00
2023-02-27T07:32:17.250Z,90.00
2023-02-27T07:33:17.419Z,95.62
2023-02-27T07:34:17.577Z,95.62
2023-02-27T07:35:17.766Z,95.62
2023-02-27T07:36:17.960Z,95.62
2023-02-27T07:37:18.124Z,95.62
2023-02-27T07:38:18.339Z,95.62
2023-02-27T07:39:18.506Z,95.62
2023-02-27T07:40:18.720Z,101.25
2023-02-27T07:41:29.983Z,101.25
2023-02-27T07:42:19.093Z,101.25
2023-02-27T07:43:19.288Z,101.25
2023-02-27T07:44:19.471Z,101.25
2023-02-27T07:45:19.696Z,101.25
2023-02-27T07:46:19.873Z,101.25
2023-02-27T07:47:20.029Z,101.25
2023-02-27T07:48:20.274Z,106.88
2023-02-27T07:49:20.448Z,106.88
2023-02-27T07:50:20.624Z,106.88
2023-02-27T07:51:20.823Z,106.88
2023-02-27T07:52:20.997Z,106.88
2023-02-27T07:53:21.192Z,106.88
2023-02-27T07:54:21.396Z,106.88
2023-02-27T07:55:21.572Z,112.50
2023-02-27T07:56:21.757Z,112.50
2023-02-27T07:57:21.951Z,112.50
2023-02-27T07:58:22.209Z,112.50
2023-02-27T07:59:22.364Z,112.50
2023-02-27T08:00:22.533Z,112.50
2023-02-27T08:01:22.735Z,112.50
2023-02-27T08:02:23.065Z,112.50
2023-02-27T08:03:23.114Z,112.50
2023-02-27T08:04:23.312Z,118.12
2023-02-27T08:05:23.499Z,118.12
2023-02-27T08:06:23.662Z,118.12
2023-02-27T08:07:23.843Z,118.12
2023-02-27T08:08:24.033Z,118.12
2023-02-27T08:09:24.216Z,118.12
2023-02-27T08:10:24.407Z,118.12
2023-02-27T08:11:24.694Z,118.12
2023-02-27T08:12:24.770Z,118.12
2023-02-27T08:13:55.742Z,123.75
2023-02-27T08:14:25.119Z,123.75
2023-02-27T08:15:25.313Z,123.75
2023-02-27T08:16:26.137Z,123.75
2023-02-27T08:17:25.689Z,123.75
2023-02-27T08:18:25.887Z,123.75
2023-02-27T08:19:26.066Z,123.75
2023-02-27T08:20:26.320Z,123.75
2023-02-27T08:21:26.809Z,123.75
2023-02-27T08:22:26.694Z,123.75
2023-02-27T08:23:27.034Z,123.75
2023-02-27T08:24:27.170Z,129.38
2023-02-27T08:25:27.464Z,129.38
2023-02-27T08:26:28.046Z,129.38
2023-02-27T08:27:27.800Z,129.38
2023-02-27T08:28:28.006Z,129.38
2023-02-27T08:29:28.156Z,129.38
2023-02-27T08:30:28.334Z,129.38
2023-02-27T08:31:28.558Z,129.38
2023-02-27T08:32:28.755Z,129.38
2023-02-27T08:33:28.863Z,129.38
2023-02-27T08:34:29.023Z,129.38
2023-02-27T08:35:29.328Z,129.38
2023-02-27T08:36:29.918Z,129.38
2023-02-27T08:37:29.792Z,129.38
2023-02-27T08:38:30.109Z,129.38
2023-02-27T08:39:30.260Z,135.00
2023-02-27T08:40:30.477Z,135.00
2023-02-27T08:41:30.725Z,135.00
2023-02-27T08:42:30.924Z,135.00
2023-02-27T08:43:31.176Z,135.00
2023-02-27T08:44:31.271Z,135.00
2023-02-27T08:45:31.512Z,135.00
2023-02-27T08:46:31.655Z,135.00
2023-02-27T08:47:31.793Z,135.00
2023-02-27T08:48:32.010Z,135.00
2023-02-27T08:49:32.198Z,135.00
2023-02-27T08:50:32.370Z,135.00
2023-02-27T08:51:32.528Z,140.62
2023-02-27T08:52:32.712Z,140.62
2023-02-27T08:53:32.895Z,140.62
2023-02-27T08:54:33.053Z,140.62
2023-02-27T08:55:33.233Z,140.62
2023-02-27T08:56:33.401Z,140.62
2023-02-27T08:57:33.696Z,140.62
2023-02-27T08:58:33.868Z,140.62
2023-02-27T08:59:34.162Z,140.62
2023-02-27T09:00:34.350Z,140.62
2023-02-27T09:01:34.738Z,146.25
2023-02-27T09:02:34.750Z,146.25
2023-02-27T09:03:34.910Z,146.25
2023-02-27T09:04:35.068Z,146.25
2023-02-27T09:05:35.429Z,146.25
2023-02-27T09:06:35.426Z,146.25
2023-02-27T09:07:35.724Z,146.25
2023-02-27T09:08:35.927Z,146.25
2023-02-27T09:09:36.085Z,146.25
2023-02-27T09:10:36.253Z,151.88
2023-02-27T09:11:38.565Z,151.88
2023-02-27T09:12:36.598Z,151.88
2023-02-27T09:13:36.811Z,151.88
2023-02-27T09:14:36.987Z,151.88
2023-02-27T09:15:37.150Z,151.88
2023-02-27T09:16:37.397Z,157.50
2023-02-27T09:17:37.491Z,157.50
2023-02-27T09:18:37.666Z,157.50
2023-02-27T09:19:37.951Z,157.50
2023-02-27T09:20:38.136Z,157.50
2023-02-27T09:21:38.286Z,163.12
2023-02-27T09:22:38.444Z,163.12
2023-02-27T09:23:38.682Z,163.12
2023-02-27T09:24:38.807Z,163.12
2023-02-27T09:25:38.970Z,163.12
2023-02-27T09:26:45.186Z,163.12
2023-02-27T09:27:39.540Z,163.12
2023-02-27T09:28:39.641Z,163.12
2023-02-27T09:29:39.780Z,163.12
2023-02-27T09:30:40.035Z,163.12
2023-02-27T09:31:40.169Z,163.12
2023-02-27T09:32:40.352Z,163.12
2023-02-27T09:33:40.532Z,168.75
2023-02-27T09:34:40.720Z,163.12
2023-02-27T09:35:40.909Z,163.12
2023-02-27T09:36:41.053Z,168.75
2023-02-27T09:37:41.363Z,163.12
2023-02-27T09:38:41.598Z,163.12
2023-02-27T09:39:41.677Z,168.75
2023-02-27T09:40:41.878Z,168.75
2023-02-27T09:41:42.185Z,168.75
2023-02-27T09:42:42.373Z,168.75
2023-02-27T09:43:42.537Z,168.75
2023-02-27T09:44:47.436Z,168.75
2023-02-27T09:45:42.989Z,168.75
2023-02-27T09:46:43.073Z,168.75
2023-02-27T09:47:43.246Z,168.75
2023-02-27T09:48:43.430Z,168.75
2023-02-27T09:49:43.593Z,168.75
2023-02-27T09:50:43.884Z,174.38
2023-02-27T09:51:44.181Z,174.38
2023-02-27T09:52:44.380Z,174.38
2023-02-27T09:53:44.556Z,174.38
2023-02-27T09:54:44.739Z,174.38
2023-02-27T09:55:44.910Z,174.38
2023-02-27T09:56:45.093Z,180.00
2023-02-27T09:57:45.247Z,180.00
2023-02-27T09:58:45.446Z,180.00
2023-02-27T09:59:45.618Z,180.00
2023-02-27T10:00:45.782Z,185.62
2023-02-27T10:01:46.084Z,185.62
2023-02-27T10:02:46.250Z,185.62
2023-02-27T10:03:46.430Z,185.62
2023-02-27T10:04:46.720Z,185.62
2023-02-27T10:05:46.894Z,191.25
2023-02-27T10:06:47.094Z,191.25
2023-02-27T10:07:47.393Z,191.25
2023-02-27T10:08:47.709Z,191.25
2023-02-27T10:09:47.868Z,196.88
2023-02-27T10:10:48.160Z,196.88
2023-02-27T10:11:48.347Z,196.88
2023-02-27T10:12:48.555Z,202.50
2023-02-27T10:13:48.722Z,202.50
2023-02-27T10:14:49.013Z,208.12
2023-02-27T10:15:49.221Z,208.12
2023-02-27T10:16:49.402Z,213.75
2023-02-27T10:17:49.678Z,213.75
2023-02-27T10:18:50.017Z,219.38
2023-02-27T10:19:50.162Z,225.00
2023-02-27T10:20:50.358Z,236.25
2023-02-27T10:21:50.560Z,258.75
2023-02-27T10:22:50.740Z,286.88
2023-02-27T10:23:50.954Z,315.00
2023-02-27T10:24:51.219Z,343.12
2023-02-27T10:25:51.387Z,365.62
2023-02-27T10:26:51.673Z,399.38
2023-02-27T10:27:51.990Z,444.38
2023-02-27T10:28:52.196Z,455.62
2023-02-27T10:29:52.454Z,489.38
2023-02-27T10:30:52.816Z,528.75
2023-02-27T10:31:52.989Z,585.00
2023-02-27T10:32:53.094Z,630.00
2023-02-27T10:33:53.273Z,652.50
2023-02-27T10:34:53.444Z,675.00
2023-02-27T10:35:53.866Z,703.12
2023-02-27T10:36:53.911Z,720.00
2023-02-27T10:37:54.080Z,725.62
2023-02-27T10:38:54.260Z,804.38
2023-02-27T10:39:54.433Z,928.12
2023-02-27T10:40:54.640Z,866.25
2023-02-27T10:41:54.831Z,826.88
2023-02-27T10:42:54.999Z,933.75
2023-02-27T10:43:55.194Z,911.25
2023-02-27T10:44:55.379Z,871.88
2023-02-27T10:45:55.570Z,883.12
2023-02-27T10:46:55.721Z,894.38
2023-02-27T10:47:55.886Z,871.88
2023-02-27T10:48:56.077Z,916.88
2023-02-27T10:49:56.259Z,922.50
2023-02-27T10:50:56.418Z,933.75
2023-02-27T10:51:56.600Z,950.62
2023-02-27T10:52:56.807Z,1091.25
2023-02-27T10:53:56.987Z,922.50
2023-02-27T10:54:57.117Z,945.00
2023-02-27T10:55:57.289Z,945.00
2023-02-27T10:56:57.473Z,939.38
2023-02-27T10:57:57.639Z,894.38
2023-02-27T10:58:57.835Z,849.38
2023-02-27T10:59:58.016Z,838.12
2023-02-27T11:00:58.174Z,815.62
2023-02-27T11:01:58.460Z,798.75
2023-02-27T11:02:58.556Z,798.75
2023-02-27T11:03:58.863Z,787.50
2023-02-27T11:04:59.028Z,770.62
2023-02-27T11:05:59.241Z,663.75
2023-02-27T11:06:59.520Z,613.12
2023-02-27T11:07:59.736Z,613.12
2023-02-27T11:08:59.920Z,1108.12
2023-02-27T11:10:00.061Z,765.00
2023-02-27T11:11:00.246Z,787.50
2023-02-27T11:12:00.412Z,787.50
2023-02-27T11:13:00.592Z,770.62
2023-02-27T11:14:01.452Z,787.50
2023-02-27T11:15:00.985Z,742.50
2023-02-27T11:16:01.449Z,725.62
2023-02-27T11:17:01.544Z,697.50
2023-02-27T11:18:01.729Z,697.50
2023-02-27T11:19:01.933Z,703.12
2023-02-27T11:20:02.135Z,703.12
2023-02-27T11:21:02.410Z,708.75
2023-02-27T11:22:02.659Z,703.12
2023-02-27T11:23:02.957Z,697.50
2023-02-27T11:24:03.244Z,691.88
2023-02-27T11:25:04.239Z,680.62
2023-02-27T11:26:03.565Z,680.62
2023-02-27T11:27:03.752Z,663.75
2023-02-27T11:28:03.937Z,680.62
2023-02-27T11:29:04.169Z,691.88
2023-02-27T11:30:04.432Z,708.75
2023-02-27T11:31:04.628Z,731.25
2023-02-27T11:32:04.950Z,748.12
2023-02-27T11:33:05.086Z,759.38
2023-02-27T11:34:05.406Z,781.88
2023-02-27T11:35:05.568Z,832.50
2023-02-27T11:36:05.813Z,849.38
2023-02-27T11:37:05.960Z,821.25
2023-02-27T11:38:06.124Z,877.50
2023-02-27T11:39:06.327Z,804.38
2023-02-27T11:40:06.479Z,815.62
2023-02-27T11:41:06.676Z,793.12
2023-02-27T11:42:06.827Z,781.88
2023-02-27T11:43:06.995Z,781.88
2023-02-27T11:44:07.337Z,770.62
2023-02-27T11:45:07.492Z,804.38
2023-02-27T11:46:41.140Z,810.00
2023-02-27T11:47:07.918Z,787.50
2023-02-27T11:48:08.053Z,832.50
2023-02-27T11:49:08.226Z,843.75
2023-02-27T11:50:08.390Z,776.25
2023-02-27T11:51:08.706Z,781.88
2023-02-27T11:52:08.989Z,742.50
2023-02-27T11:53:09.189Z,793.12
2023-02-27T11:54:09.586Z,748.12
2023-02-27T11:55:09.784Z,725.62
2023-02-27T11:56:09.976Z,748.12
2023-02-27T11:57:10.131Z,770.62
2023-02-27T11:58:10.314Z,804.38
2023-02-27T11:59:10.525Z,826.88
2023-02-27T12:00:10.709Z,838.12
2023-02-27T12:01:10.870Z,804.38
2023-02-27T12:02:11.040Z,871.88
2023-02-27T12:03:11.388Z,967.50
2023-02-27T12:04:11.584Z,838.12
2023-02-27T12:05:11.722Z,821.25
2023-02-27T12:06:11.906Z,888.75
2023-02-27T12:07:12.062Z,826.88
2023-02-27T12:08:12.227Z,838.12
2023-02-27T12:09:12.546Z,894.38
2023-02-27T12:10:12.715Z,871.88
2023-02-27T12:11:14.801Z,860.62
2023-02-27T12:12:13.196Z,849.38
2023-02-27T12:13:13.360Z,900.00
2023-02-27T12:14:13.556Z,860.62
2023-02-27T12:15:13.732Z,900.00
2023-02-27T12:16:13.943Z,855.00
2023-02-27T12:17:14.076Z,815.62
2023-02-27T12:18:14.248Z,770.62
2023-02-27T12:19:14.563Z,748.12
2023-02-27T12:20:14.726Z,725.62
2023-02-27T12:21:15.128Z,714.38
2023-02-27T12:22:15.323Z,731.25
2023-02-27T12:23:15.508Z,748.12
2023-02-27T12:24:15.724Z,950.62
2023-02-27T12:25:15.883Z,860.62
2023-02-27T12:26:16.037Z,849.38
2023-02-27T12:27:16.200Z,1035.00
2023-02-27T12:28:16.373Z,1035.00
2023-02-27T12:29:16.554Z,905.62
2023-02-27T12:30:16.710Z,871.88
2023-02-27T12:31:16.901Z,888.75
2023-02-27T12:32:17.074Z,1389.38
2023-02-27T12:33:17.256Z,1687.50
2023-02-27T12:34:17.451Z,1001.25
2023-02-27T12:35:17.624Z,995.62
2023-02-27T12:36:17.820Z,1203.75
2023-02-27T12:37:17.993Z,905.62
2023-02-27T12:38:18.188Z,973.12
2023-02-27T12:39:18.404Z,736.88
2023-02-27T12:40:18.559Z,703.12
2023-02-27T12:41:18.722Z,691.88
2023-02-27T12:42:18.921Z,916.88
2023-02-27T12:43:19.075Z,1316.25
2023-02-27T12:44:19.266Z,1181.25
2023-02-27T12:45:19.447Z,1170.00
2023-02-27T12:46:19.635Z,714.38
2023-02-27T12:47:19.817Z,793.12
2023-02-27T12:48:20.077Z,669.38
2023-02-27T12:49:20.179Z,483.75
2023-02-27T12:50:21.031Z,540.00
2023-02-27T12:51:20.508Z,1231.88
2023-02-27T12:52:20.709Z,1276.88
2023-02-27T12:53:20.873Z,1265.62
2023-02-27T12:54:21.101Z,1282.50
2023-02-27T12:55:21.270Z,973.12
2023-02-27T12:56:21.438Z,1288.12
2023-02-27T12:57:21.609Z,725.62